Interlink Veracity — V7GD4 — position and weather

sailwx.info

Track history (hours):
 
Tides and Currents Weather Stations Pressure Air Temp Water Temp Dewpoint Dewpoint Depression Visibility Wind Speed Wind Dir Waves Ship Positions

Interlink Veracity

Last reported at 2018-Jan-18 01:17 UTC. Time now 2018-Jan-18 02:25 UTC.
Position N 55°12' E 013°16'.

Length 179 m; draft 7.3 m.

Type: Cargo ship. MMSI: 538005694.

Date/timePositionNaut miles runAvg speedWind from/ knotsBaromVisibWave heightAir tempDewpointWater temp
2018-Jan-18 01:17N 55°12' E 013°16'411.9
2018-Jan-18 00:58N 55°13' E 013°10'1111.8
2018-Jan-18 00:00N 55°15' E 012°50'112.0
2018-Jan-17 23:57N 55°15' E 012°49'  
2018-Jan-12 05:10N 39°21' W 009°50'211.1
2018-Jan-12 05:00N 39°19' W 009°50'510.9
2018-Jan-12 04:30N 39°14' W 009°50'510.8
2018-Jan-12 04:00N 39°09' W 009°51'510.7
2018-Jan-12 03:30N 39°03' W 009°51'510.7
2018-Jan-12 03:00N 38°58' W 009°51'510.9
2018-Jan-12 02:30N 38°53' W 009°51'510.8
2018-Jan-12 02:00N 38°47' W 009°51'510.5
2018-Jan-12 01:30N 38°42' W 009°51'510.1
2018-Jan-12 01:00N 38°37' W 009°49'510.2
2018-Jan-12 00:30N 38°32' W 009°48'510.4
2018-Jan-12 00:00N 38°27' W 009°47'510.7
2018-Jan-11 23:30N 38°22' W 009°45'510.2
2018-Jan-11 23:00N 38°17' W 009°44'610.3
2018-Jan-11 22:27N 38°11' W 009°42'510.2
2018-Jan-11 21:59N 38°07' W 009°41'810.1
2018-Jan-11 21:14N 37°59' W 009°38'210.1
2018-Jan-11 21:00N 37°57' W 009°38'510.2
2018-Jan-11 20:29N 37°52' W 009°37'510.1
2018-Jan-11 20:00N 37°47' W 009°35'5 9.9
2018-Jan-11 19:28N 37°42' W 009°33'510.0
2018-Jan-11 19:00N 37°37' W 009°32'193 8.3
2018-Jan-10 19:47N 35°58' W 006°06'5 9.3
2018-Jan-10 19:14N 35°58' W 005°60'2 9.5
2018-Jan-10 19:00N 35°58' W 005°57'6 9.8
2018-Jan-10 18:24N 35°58' W 005°50'5 9.3
2018-Jan-10 17:49N 35°58' W 005°43'3 8.8
2018-Jan-10 17:26N 35°58' W 005°39'4 8.1
2018-Jan-10 16:59N 35°58' W 005°34'4 7.4
2018-Jan-10 16:30N 35°59' W 005°30'3 6.9
2018-Jan-10 16:00N 36°00' W 005°26'3 6.0
2018-Jan-10 15:30N 36°01' W 005°22'3 6.0
2018-Jan-10 15:00N 36°02' W 005°19'3 6.5
2018-Jan-10 14:30N 36°03' W 005°15'4 7.9
2018-Jan-10 14:00N 36°04' W 005°11'5 9.0
2018-Jan-10 13:30N 36°05' W 005°05'5 0.2
2018-Jan-09 18:33N 36°09' W 005°08'112.3
2018-Jan-09 18:29N 36°09' W 005°09'612.2
2018-Jan-09 17:59N 36°06' W 005°15'510.3
2018-Jan-09 17:30N 36°05' W 005°22'3 6.0
2018-Jan-09 16:59N 36°08' W 005°22'0 0.1
2018-Jan-09 16:29N 36°08' W 005°22'0 0.1
2018-Jan-09 15:59N 36°08' W 005°22'0 0.0
2018-Jan-09 15:29N 36°08' W 005°22'0 0.0
2018-Jan-09 14:59N 36°08' W 005°22'0 0.0
2018-Jan-09 14:29N 36°08' W 005°22'0 0.1
2018-Jan-09 13:59N 36°08' W 005°22'0 0.1
2018-Jan-09 13:29N 36°08' W 005°22'0 0.1
2018-Jan-09 12:59N 36°08' W 005°22'0 0.1
2018-Jan-09 12:29N 36°08' W 005°22'0 0.0
2018-Jan-09 11:59N 36°08' W 005°22'0 0.1
2018-Jan-09 11:29N 36°08' W 005°22'0 0.0
2018-Jan-09 10:59N 36°08' W 005°22'0 0.1
2018-Jan-09 10:29N 36°08' W 005°22'0 0.0
2018-Jan-09 09:59N 36°08' W 005°22'0 0.0
2018-Jan-09 09:29N 36°08' W 005°22'0 0.0
2018-Jan-09 08:59N 36°08' W 005°22'0 0.0
2018-Jan-09 08:29N 36°08' W 005°22'0 0.0
2018-Jan-09 07:59N 36°08' W 005°22'0 0.0
2018-Jan-09 07:29N 36°08' W 005°22'0 0.4
2018-Jan-09 07:00N 36°08' W 005°22'2 4.5
2018-Jan-09 06:30N 36°06' W 005°21'2 3.9
2018-Jan-09 06:00N 36°05' W 005°18'2 4.9
2018-Jan-09 05:30N 36°05' W 005°15'3 5.6
2018-Jan-09 05:00N 36°06' W 005°12'3 5.8
2018-Jan-09 04:30N 36°06' W 005°08'4 8.8
2018-Jan-09 04:00N 36°07' W 005°03'5 9.5
2018-Jan-09 03:30N 36°08' W 004°57'5 9.5
2018-Jan-09 03:00N 36°09' W 004°51'5 9.6
2018-Jan-09 02:30N 36°09' W 004°46'5 9.5
2018-Jan-09 02:00N 36°10' W 004°40'5 9.3
2018-Jan-09 01:30N 36°10' W 004°34'8 8.6
2018-Jan-09 00:36N 36°12' W 004°24'1 8.2
2018-Jan-09 00:27N 36°12' W 004°23'3 8.0
2018-Jan-09 00:00N 36°12' W 004°18'12 9.0
2018-Jan-08 22:43N 36°14' W 004°04'3 8.8
2018-Jan-08 22:25N 36°14' W 004°01'  
Track history (hours):
 
Tides and Currents Weather Stations Pressure Air Temp Water Temp Dewpoint Dewpoint Depression Visibility Wind Speed Wind Dir Waves Ship Positions

Interlink Veracity

Last reported at 2018-Jan-18 01:17 UTC. Time now 2018-Jan-18 02:25 UTC.
Position N 55°12' E 013°16'.

Length 179 m; draft 7.3 m.

Type: Cargo ship. MMSI: 538005694.

Date/timePositionNaut miles runAvg speedWind from/ knotsBaromVisibWave heightAir tempDewpointWater temp
2018-Jan-18 01:17N 55°12' E 013°16'411.9
2018-Jan-18 00:58N 55°13' E 013°10'1111.8
2018-Jan-18 00:00N 55°15' E 012°50'112.0
2018-Jan-17 23:57N 55°15' E 012°49'  
2018-Jan-12 05:10N 39°21' W 009°50'211.1
2018-Jan-12 05:00N 39°19' W 009°50'510.9
2018-Jan-12 04:30N 39°14' W 009°50'510.8
2018-Jan-12 04:00N 39°09' W 009°51'510.7
2018-Jan-12 03:30N 39°03' W 009°51'510.7
2018-Jan-12 03:00N 38°58' W 009°51'510.9
2018-Jan-12 02:30N 38°53' W 009°51'510.8
2018-Jan-12 02:00N 38°47' W 009°51'510.5
2018-Jan-12 01:30N 38°42' W 009°51'510.1
2018-Jan-12 01:00N 38°37' W 009°49'510.2
2018-Jan-12 00:30N 38°32' W 009°48'510.4
2018-Jan-12 00:00N 38°27' W 009°47'510.7
2018-Jan-11 23:30N 38°22' W 009°45'510.2
2018-Jan-11 23:00N 38°17' W 009°44'610.3
2018-Jan-11 22:27N 38°11' W 009°42'510.2
2018-Jan-11 21:59N 38°07' W 009°41'810.1
2018-Jan-11 21:14N 37°59' W 009°38'210.1
2018-Jan-11 21:00N 37°57' W 009°38'510.2
2018-Jan-11 20:29N 37°52' W 009°37'510.1
2018-Jan-11 20:00N 37°47' W 009°35'5 9.9
2018-Jan-11 19:28N 37°42' W 009°33'510.0
2018-Jan-11 19:00N 37°37' W 009°32'193 8.3
2018-Jan-10 19:47N 35°58' W 006°06'5 9.3
2018-Jan-10 19:14N 35°58' W 005°60'2 9.5
2018-Jan-10 19:00N 35°58' W 005°57'6 9.8
2018-Jan-10 18:24N 35°58' W 005°50'5 9.3
2018-Jan-10 17:49N 35°58' W 005°43'3 8.8
2018-Jan-10 17:26N 35°58' W 005°39'4 8.1
2018-Jan-10 16:59N 35°58' W 005°34'4 7.4
2018-Jan-10 16:30N 35°59' W 005°30'3 6.9
2018-Jan-10 16:00N 36°00' W 005°26'3 6.0
2018-Jan-10 15:30N 36°01' W 005°22'3 6.0
2018-Jan-10 15:00N 36°02' W 005°19'3 6.5
2018-Jan-10 14:30N 36°03' W 005°15'4 7.9
2018-Jan-10 14:00N 36°04' W 005°11'5 9.0
2018-Jan-10 13:30N 36°05' W 005°05'5 0.2
2018-Jan-09 18:33N 36°09' W 005°08'112.3
2018-Jan-09 18:29N 36°09' W 005°09'612.2
2018-Jan-09 17:59N 36°06' W 005°15'510.3
2018-Jan-09 17:30N 36°05' W 005°22'3 6.0
2018-Jan-09 16:59N 36°08' W 005°22'0 0.1
2018-Jan-09 16:29N 36°08' W 005°22'0 0.1
2018-Jan-09 15:59N 36°08' W 005°22'0 0.0
2018-Jan-09 15:29N 36°08' W 005°22'0 0.0
2018-Jan-09 14:59N 36°08' W 005°22'0 0.0
2018-Jan-09 14:29N 36°08' W 005°22'0 0.1
2018-Jan-09 13:59N 36°08' W 005°22'0 0.1
2018-Jan-09 13:29N 36°08' W 005°22'0 0.1
2018-Jan-09 12:59N 36°08' W 005°22'0 0.1
2018-Jan-09 12:29N 36°08' W 005°22'0 0.0
2018-Jan-09 11:59N 36°08' W 005°22'0 0.1
2018-Jan-09 11:29N 36°08' W 005°22'0 0.0
2018-Jan-09 10:59N 36°08' W 005°22'0 0.1
2018-Jan-09 10:29N 36°08' W 005°22'0 0.0
2018-Jan-09 09:59N 36°08' W 005°22'0 0.0
2018-Jan-09 09:29N 36°08' W 005°22'0 0.0
2018-Jan-09 08:59N 36°08' W 005°22'0 0.0
2018-Jan-09 08:29N 36°08' W 005°22'0 0.0
2018-Jan-09 07:59N 36°08' W 005°22'0 0.0
2018-Jan-09 07:29N 36°08' W 005°22'0 0.4
2018-Jan-09 07:00N 36°08' W 005°22'2 4.5
2018-Jan-09 06:30N 36°06' W 005°21'2 3.9
2018-Jan-09 06:00N 36°05' W 005°18'2 4.9
2018-Jan-09 05:30N 36°05' W 005°15'3 5.6
2018-Jan-09 05:00N 36°06' W 005°12'3 5.8
2018-Jan-09 04:30N 36°06' W 005°08'4 8.8
2018-Jan-09 04:00N 36°07' W 005°03'5 9.5
2018-Jan-09 03:30N 36°08' W 004°57'5 9.5
2018-Jan-09 03:00N 36°09' W 004°51'5 9.6
2018-Jan-09 02:30N 36°09' W 004°46'5 9.5
2018-Jan-09 02:00N 36°10' W 004°40'5 9.3
2018-Jan-09 01:30N 36°10' W 004°34'8 8.6
2018-Jan-09 00:36N 36°12' W 004°24'1 8.2
2018-Jan-09 00:27N 36°12' W 004°23'3 8.0
2018-Jan-09 00:00N 36°12' W 004°18'12 9.0
2018-Jan-08 22:43N 36°14' W 004°04'3 8.8
2018-Jan-08 22:25N 36°14' W 004°01'  

Dump ship's entire track history